Terminal Aerodrome Forecast
Issued by NWS Mt. Holly, NJ

Home | Current Version | Previous Version | Text Only | Print | Product List | Glossary On
Versions: 1 2 3 4 5 6 7 8 9 10 11 12 13
000
FTUS41 KPHI 281127
TAFRDG
TAF
KRDG 281127Z 2812/2912 VRB02KT P6SM SCT250
     FM281500 16005KT P6SM FEW040
     FM282300 18003KT P6SM SKC
      TEMPO 2907/2910 3SM BR=

USA.gov is the U.S. government's official web portal to all federal, state and local government web resources and services.